sensor_id;sensor_type;location;lat;lon;timestamp;P1;durP1;ratioP1;P2;durP2;ratioP2
21192;SDS011;10754;51.106;7.164;2022-12-24T00:01:07;11.48;;;3.55;;
21192;SDS011;10754;51.106;7.164;2022-12-24T00:03:34;11.13;;;3.70;;
21192;SDS011;10754;51.106;7.164;2022-12-24T00:06:06;9.05;;;2.85;;
21192;SDS011;10754;51.106;7.164;2022-12-24T00:08:34;10.83;;;3.23;;
21192;SDS011;10754;51.106;7.164;2022-12-24T00:11:00;14.07;;;3.57;;
21192;SDS011;10754;51.106;7.164;2022-12-24T00:13:26;11.80;;;3.20;;
21192;SDS011;10754;51.106;7.164;2022-12-24T00:15:51;14.32;;;3.97;;
21192;SDS011;10754;51.106;7.164;2022-12-24T00:18:17;11.60;;;3.70;;
21192;SDS011;10754;51.106;7.164;2022-12-24T00:20:46;8.33;;;3.50;;
21192;SDS011;10754;51.106;7.164;2022-12-24T00:23:12;13.77;;;4.33;;
21192;SDS011;10754;51.106;7.164;2022-12-24T00:25:38;11.82;;;4.13;;
21192;SDS011;10754;51.106;7.164;2022-12-24T00:28:04;13.38;;;3.67;;
21192;SDS011;10754;51.106;7.164;2022-12-24T00:30:29;13.70;;;4.30;;
21192;SDS011;10754;51.106;7.164;2022-12-24T00:32:55;11.90;;;3.50;;
21192;SDS011;10754;51.106;7.164;2022-12-24T00:35:21;9.40;;;3.05;;
21192;SDS011;10754;51.106;7.164;2022-12-24T00:37:47;11.15;;;3.13;;
21192;SDS011;10754;51.106;7.164;2022-12-24T00:40:13;11.40;;;3.93;;
21192;SDS011;10754;51.106;7.164;2022-12-24T00:42:39;13.73;;;3.63;;
21192;SDS011;10754;51.106;7.164;2022-12-24T00:45:04;11.47;;;3.13;;
21192;SDS011;10754;51.106;7.164;2022-12-24T00:47:30;10.10;;;3.43;;
21192;SDS011;10754;51.106;7.164;2022-12-24T00:49:56;10.50;;;3.43;;
21192;SDS011;10754;51.106;7.164;2022-12-24T00:52:21;14.60;;;4.00;;
21192;SDS011;10754;51.106;7.164;2022-12-24T00:54:47;10.83;;;2.97;;
21192;SDS011;10754;51.106;7.164;2022-12-24T00:57:12;17.67;;;4.63;;
21192;SDS011;10754;51.106;7.164;2022-12-24T00:59:38;11.07;;;3.67;;
21192;SDS011;10754;51.106;7.164;2022-12-24T01:02:03;15.52;;;3.80;;
21192;SDS011;10754;51.106;7.164;2022-12-24T01:04:29;11.17;;;3.37;;
21192;SDS011;10754;51.106;7.164;2022-12-24T01:07:13;16.23;;;4.30;;
21192;SDS011;10754;51.106;7.164;2022-12-24T01:09:38;10.77;;;3.60;;
21192;SDS011;10754;51.106;7.164;2022-12-24T01:12:04;14.37;;;4.10;;
21192;SDS011;10754;51.106;7.164;2022-12-24T01:14:29;14.60;;;3.47;;
21192;SDS011;10754;51.106;7.164;2022-12-24T01:16:55;12.83;;;3.23;;
21192;SDS011;10754;51.106;7.164;2022-12-24T01:19:20;12.47;;;3.07;;
21192;SDS011;10754;51.106;7.164;2022-12-24T01:21:46;12.50;;;3.23;;
21192;SDS011;10754;51.106;7.164;2022-12-24T01:24:15;8.97;;;3.07;;
21192;SDS011;10754;51.106;7.164;2022-12-24T01:26:41;12.80;;;3.43;;
21192;SDS011;10754;51.106;7.164;2022-12-24T01:29:07;11.03;;;3.13;;
21192;SDS011;10754;51.106;7.164;2022-12-24T01:31:32;15.45;;;4.63;;
21192;SDS011;10754;51.106;7.164;2022-12-24T01:33:58;11.57;;;3.17;;
21192;SDS011;10754;51.106;7.164;2022-12-24T01:36:24;15.63;;;3.40;;
21192;SDS011;10754;51.106;7.164;2022-12-24T01:38:50;13.83;;;4.43;;
21192;SDS011;10754;51.106;7.164;2022-12-24T01:41:19;14.33;;;3.63;;
21192;SDS011;10754;51.106;7.164;2022-12-24T01:46:48;13.77;;;3.27;;
21192;SDS011;10754;51.106;7.164;2022-12-24T01:49:15;10.60;;;3.37;;
21192;SDS011;10754;51.106;7.164;2022-12-24T01:51:45;10.63;;;3.35;;
21192;SDS011;10754;51.106;7.164;2022-12-24T01:54:23;12.43;;;2.97;;
21192;SDS011;10754;51.106;7.164;2022-12-24T01:57:01;12.20;;;3.17;;
21192;SDS011;10754;51.106;7.164;2022-12-24T01:59:32;13.20;;;3.13;;
21192;SDS011;10754;51.106;7.164;2022-12-24T02:02:00;14.37;;;3.50;;
21192;SDS011;10754;51.106;7.164;2022-12-24T02:04:43;12.25;;;4.00;;
21192;SDS011;10754;51.106;7.164;2022-12-24T02:07:14;11.93;;;3.53;;
21192;SDS011;10754;51.106;7.164;2022-12-24T02:09:40;13.30;;;3.70;;
21192;SDS011;10754;51.106;7.164;2022-12-24T02:12:06;12.97;;;3.97;;
21192;SDS011;10754;51.106;7.164;2022-12-24T02:14:32;14.83;;;3.60;;
21192;SDS011;10754;51.106;7.164;2022-12-24T02:25:52;10.60;;;3.10;;
21192;SDS011;10754;51.106;7.164;2022-12-24T02:28:28;12.77;;;3.13;;
21192;SDS011;10754;51.106;7.164;2022-12-24T02:36:33;12.37;;;3.47;;
21192;SDS011;10754;51.106;7.164;2022-12-24T02:39:09;11.77;;;2.90;;
21192;SDS011;10754;51.106;7.164;2022-12-24T02:41:41;10.53;;;3.33;;
21192;SDS011;10754;51.106;7.164;2022-12-24T02:44:32;9.47;;;3.50;;
21192;SDS011;10754;51.106;7.164;2022-12-24T02:47:09;12.13;;;3.40;;
21192;SDS011;10754;51.106;7.164;2022-12-24T02:49:35;10.13;;;3.47;;
21192;SDS011;10754;51.106;7.164;2022-12-24T02:52:01;10.80;;;3.60;;
21192;SDS011;10754;51.106;7.164;2022-12-24T02:54:27;14.63;;;4.05;;
21192;SDS011;10754;51.106;7.164;2022-12-24T02:59:34;13.07;;;4.13;;
21192;SDS011;10754;51.106;7.164;2022-12-24T03:02:36;11.07;;;3.58;;
21192;SDS011;10754;51.106;7.164;2022-12-24T03:05:17;15.57;;;3.63;;
21192;SDS011;10754;51.106;7.164;2022-12-24T03:10:38;10.75;;;3.70;;
21192;SDS011;10754;51.106;7.164;2022-12-24T03:13:17;11.63;;;4.30;;
21192;SDS011;10754;51.106;7.164;2022-12-24T03:15:44;9.67;;;3.33;;
21192;SDS011;10754;51.106;7.164;2022-12-24T03:18:11;10.43;;;3.07;;
21192;SDS011;10754;51.106;7.164;2022-12-24T03:20:41;10.75;;;3.03;;
21192;SDS011;10754;51.106;7.164;2022-12-24T03:23:09;10.63;;;3.53;;
21192;SDS011;10754;51.106;7.164;2022-12-24T03:25:37;12.07;;;3.60;;
21192;SDS011;10754;51.106;7.164;2022-12-24T03:28:05;13.95;;;3.55;;
21192;SDS011;10754;51.106;7.164;2022-12-24T03:30:32;10.93;;;3.10;;
21192;SDS011;10754;51.106;7.164;2022-12-24T03:32:59;10.05;;;3.65;;
21192;SDS011;10754;51.106;7.164;2022-12-24T03:35:24;9.97;;;3.17;;
21192;SDS011;10754;51.106;7.164;2022-12-24T03:37:50;11.05;;;3.60;;
21192;SDS011;10754;51.106;7.164;2022-12-24T03:40:16;9.17;;;2.73;;
21192;SDS011;10754;51.106;7.164;2022-12-24T03:42:41;12.47;;;3.63;;
21192;SDS011;10754;51.106;7.164;2022-12-24T03:45:07;10.98;;;2.60;;
21192;SDS011;10754;51.106;7.164;2022-12-24T03:47:33;8.47;;;2.77;;
21192;SDS011;10754;51.106;7.164;2022-12-24T03:49:58;8.40;;;3.17;;
21192;SDS011;10754;51.106;7.164;2022-12-24T03:52:24;7.93;;;2.37;;
21192;SDS011;10754;51.106;7.164;2022-12-24T03:54:49;6.57;;;1.87;;
21192;SDS011;10754;51.106;7.164;2022-12-24T03:57:15;5.47;;;2.40;;
21192;SDS011;10754;51.106;7.164;2022-12-24T03:59:40;6.37;;;2.10;;
21192;SDS011;10754;51.106;7.164;2022-12-24T04:02:06;5.40;;;1.90;;
21192;SDS011;10754;51.106;7.164;2022-12-24T04:04:31;6.73;;;2.30;;
21192;SDS011;10754;51.106;7.164;2022-12-24T04:07:00;7.37;;;1.90;;
21192;SDS011;10754;51.106;7.164;2022-12-24T04:09:26;6.60;;;2.00;;
21192;SDS011;10754;51.106;7.164;2022-12-24T04:11:51;5.73;;;1.90;;
21192;SDS011;10754;51.106;7.164;2022-12-24T04:14:17;8.17;;;2.57;;
21192;SDS011;10754;51.106;7.164;2022-12-24T04:16:42;5.95;;;2.13;;
21192;SDS011;10754;51.106;7.164;2022-12-24T04:19:08;6.33;;;2.33;;
21192;SDS011;10754;51.106;7.164;2022-12-24T04:21:33;5.63;;;1.40;;
21192;SDS011;10754;51.106;7.164;2022-12-24T04:23:59;5.20;;;1.90;;
21192;SDS011;10754;51.106;7.164;2022-12-24T04:26:24;7.03;;;1.57;;
21192;SDS011;10754;51.106;7.164;2022-12-24T04:28:50;5.17;;;2.00;;
21192;SDS011;10754;51.106;7.164;2022-12-24T04:31:16;4.77;;;1.60;;
21192;SDS011;10754;51.106;7.164;2022-12-24T04:33:42;6.90;;;1.70;;
21192;SDS011;10754;51.106;7.164;2022-12-24T04:36:09;4.47;;;1.70;;
21192;SDS011;10754;51.106;7.164;2022-12-24T04:38:41;7.00;;;2.10;;
21192;SDS011;10754;51.106;7.164;2022-12-24T04:41:09;3.22;;;1.05;;
21192;SDS011;10754;51.106;7.164;2022-12-24T04:43:40;3.40;;;1.40;;
21192;SDS011;10754;51.106;7.164;2022-12-24T04:46:16;6.57;;;2.10;;
21192;SDS011;10754;51.106;7.164;2022-12-24T04:48:43;5.33;;;1.70;;
21192;SDS011;10754;51.106;7.164;2022-12-24T04:51:10;5.27;;;1.50;;
21192;SDS011;10754;51.106;7.164;2022-12-24T04:53:36;4.73;;;1.40;;
21192;SDS011;10754;51.106;7.164;2022-12-24T04:56:03;5.40;;;1.70;;
21192;SDS011;10754;51.106;7.164;2022-12-24T04:58:32;4.80;;;1.77;;
21192;SDS011;10754;51.106;7.164;2022-12-24T05:01:02;4.60;;;1.23;;
21192;SDS011;10754;51.106;7.164;2022-12-24T05:03:29;8.80;;;2.23;;
21192;SDS011;10754;51.106;7.164;2022-12-24T05:05:59;6.47;;;2.17;;
21192;SDS011;10754;51.106;7.164;2022-12-24T05:08:26;6.60;;;1.70;;
21192;SDS011;10754;51.106;7.164;2022-12-24T05:10:55;7.27;;;2.10;;
21192;SDS011;10754;51.106;7.164;2022-12-24T05:13:22;3.42;;;1.30;;
21192;SDS011;10754;51.106;7.164;2022-12-24T05:15:47;6.27;;;2.03;;
21192;SDS011;10754;51.106;7.164;2022-12-24T05:18:13;3.90;;;1.60;;
21192;SDS011;10754;51.106;7.164;2022-12-24T05:20:39;5.63;;;1.80;;
21192;SDS011;10754;51.106;7.164;2022-12-24T05:23:06;6.32;;;1.90;;
21192;SDS011;10754;51.106;7.164;2022-12-24T05:25:49;7.00;;;2.00;;
21192;SDS011;10754;51.106;7.164;2022-12-24T05:28:34;6.10;;;2.30;;
21192;SDS011;10754;51.106;7.164;2022-12-24T05:30:59;8.80;;;2.47;;
21192;SDS011;10754;51.106;7.164;2022-12-24T05:33:25;6.53;;;1.53;;
21192;SDS011;10754;51.106;7.164;2022-12-24T05:35:51;6.87;;;2.20;;
21192;SDS011;10754;51.106;7.164;2022-12-24T05:38:16;7.57;;;2.13;;
21192;SDS011;10754;51.106;7.164;2022-12-24T05:40:42;6.47;;;2.00;;
21192;SDS011;10754;51.106;7.164;2022-12-24T05:43:07;5.43;;;2.07;;
21192;SDS011;10754;51.106;7.164;2022-12-24T05:45:33;8.13;;;2.70;;
21192;SDS011;10754;51.106;7.164;2022-12-24T05:47:58;7.10;;;2.58;;
21192;SDS011;10754;51.106;7.164;2022-12-24T05:50:24;9.07;;;3.03;;
21192;SDS011;10754;51.106;7.164;2022-12-24T05:52:50;6.10;;;2.10;;
21192;SDS011;10754;51.106;7.164;2022-12-24T05:55:15;7.97;;;2.15;;
21192;SDS011;10754;51.106;7.164;2022-12-24T05:57:41;6.85;;;2.22;;
21192;SDS011;10754;51.106;7.164;2022-12-24T06:00:06;10.30;;;2.63;;
21192;SDS011;10754;51.106;7.164;2022-12-24T06:02:32;7.70;;;2.67;;
21192;SDS011;10754;51.106;7.164;2022-12-24T06:04:58;7.53;;;2.33;;
21192;SDS011;10754;51.106;7.164;2022-12-24T06:07:23;5.20;;;2.00;;
21192;SDS011;10754;51.106;7.164;2022-12-24T06:09:49;7.83;;;2.40;;
21192;SDS011;10754;51.106;7.164;2022-12-24T06:12:14;6.20;;;2.37;;
21192;SDS011;10754;51.106;7.164;2022-12-24T06:14:40;7.88;;;1.58;;
21192;SDS011;10754;51.106;7.164;2022-12-24T06:17:05;9.82;;;2.47;;
21192;SDS011;10754;51.106;7.164;2022-12-24T06:19:31;6.83;;;2.40;;
21192;SDS011;10754;51.106;7.164;2022-12-24T06:21:56;10.67;;;2.47;;
21192;SDS011;10754;51.106;7.164;2022-12-24T06:24:22;6.20;;;2.17;;
21192;SDS011;10754;51.106;7.164;2022-12-24T06:26:47;8.73;;;2.40;;
21192;SDS011;10754;51.106;7.164;2022-12-24T06:29:13;9.73;;;3.00;;
21192;SDS011;10754;51.106;7.164;2022-12-24T06:31:38;5.50;;;1.97;;
21192;SDS011;10754;51.106;7.164;2022-12-24T06:34:04;7.60;;;2.00;;
21192;SDS011;10754;51.106;7.164;2022-12-24T06:36:29;8.10;;;2.70;;
21192;SDS011;10754;51.106;7.164;2022-12-24T06:38:55;6.07;;;1.90;;
21192;SDS011;10754;51.106;7.164;2022-12-24T06:41:20;11.10;;;3.25;;
21192;SDS011;10754;51.106;7.164;2022-12-24T06:43:47;9.47;;;3.03;;
21192;SDS011;10754;51.106;7.164;2022-12-24T06:46:15;11.37;;;2.83;;
21192;SDS011;10754;51.106;7.164;2022-12-24T06:48:42;10.07;;;3.30;;
21192;SDS011;10754;51.106;7.164;2022-12-24T06:51:09;9.13;;;2.67;;
21192;SDS011;10754;51.106;7.164;2022-12-24T06:53:35;8.57;;;2.67;;
21192;SDS011;10754;51.106;7.164;2022-12-24T06:56:03;12.65;;;3.53;;
21192;SDS011;10754;51.106;7.164;2022-12-24T06:58:31;8.33;;;2.57;;
21192;SDS011;10754;51.106;7.164;2022-12-24T07:00:57;9.17;;;2.57;;
21192;SDS011;10754;51.106;7.164;2022-12-24T07:03:24;9.15;;;2.42;;
21192;SDS011;10754;51.106;7.164;2022-12-24T07:05:50;9.57;;;3.50;;
21192;SDS011;10754;51.106;7.164;2022-12-24T07:08:15;7.93;;;2.53;;
21192;SDS011;10754;51.106;7.164;2022-12-24T07:10:41;12.13;;;3.05;;
21192;SDS011;10754;51.106;7.164;2022-12-24T07:13:06;9.80;;;3.08;;
21192;SDS011;10754;51.106;7.164;2022-12-24T07:15:31;10.63;;;3.65;;
21192;SDS011;10754;51.106;7.164;2022-12-24T07:17:57;10.85;;;3.30;;
21192;SDS011;10754;51.106;7.164;2022-12-24T07:20:22;11.27;;;3.10;;
21192;SDS011;10754;51.106;7.164;2022-12-24T07:22:48;11.10;;;3.23;;
21192;SDS011;10754;51.106;7.164;2022-12-24T07:25:13;10.63;;;3.03;;
21192;SDS011;10754;51.106;7.164;2022-12-24T07:27:39;9.93;;;3.17;;
21192;SDS011;10754;51.106;7.164;2022-12-24T07:30:05;11.53;;;3.63;;
21192;SDS011;10754;51.106;7.164;2022-12-24T07:32:31;12.20;;;3.37;;
21192;SDS011;10754;51.106;7.164;2022-12-24T07:34:57;14.38;;;4.25;;
21192;SDS011;10754;51.106;7.164;2022-12-24T07:37:22;12.70;;;4.05;;
21192;SDS011;10754;51.106;7.164;2022-12-24T07:39:48;11.23;;;4.35;;
21192;SDS011;10754;51.106;7.164;2022-12-24T07:42:13;12.43;;;3.50;;
21192;SDS011;10754;51.106;7.164;2022-12-24T07:44:39;9.13;;;3.33;;
21192;SDS011;10754;51.106;7.164;2022-12-24T07:47:04;11.00;;;3.47;;
21192;SDS011;10754;51.106;7.164;2022-12-24T07:49:30;14.05;;;3.03;;
21192;SDS011;10754;51.106;7.164;2022-12-24T07:51:55;10.40;;;3.85;;
21192;SDS011;10754;51.106;7.164;2022-12-24T07:54:21;13.60;;;3.70;;
21192;SDS011;10754;51.106;7.164;2022-12-24T07:56:47;14.25;;;4.85;;
21192;SDS011;10754;51.106;7.164;2022-12-24T07:59:12;16.90;;;3.65;;
21192;SDS011;10754;51.106;7.164;2022-12-24T08:01:38;12.53;;;4.07;;
21192;SDS011;10754;51.106;7.164;2022-12-24T08:04:04;10.88;;;3.83;;
21192;SDS011;10754;51.106;7.164;2022-12-24T08:06:30;9.57;;;3.20;;
21192;SDS011;10754;51.106;7.164;2022-12-24T08:08:56;10.13;;;3.40;;
21192;SDS011;10754;51.106;7.164;2022-12-24T08:11:21;12.13;;;3.37;;
21192;SDS011;10754;51.106;7.164;2022-12-24T08:13:47;12.90;;;3.57;;
21192;SDS011;10754;51.106;7.164;2022-12-24T08:16:12;16.30;;;4.50;;
21192;SDS011;10754;51.106;7.164;2022-12-24T08:18:38;11.70;;;3.93;;
21192;SDS011;10754;51.106;7.164;2022-12-24T08:21:06;10.80;;;3.63;;
21192;SDS011;10754;51.106;7.164;2022-12-24T08:23:32;10.98;;;3.88;;
21192;SDS011;10754;51.106;7.164;2022-12-24T08:25:58;12.60;;;3.57;;
21192;SDS011;10754;51.106;7.164;2022-12-24T08:28:23;12.90;;;3.70;;
21192;SDS011;10754;51.106;7.164;2022-12-24T08:30:49;10.47;;;2.97;;
21192;SDS011;10754;51.106;7.164;2022-12-24T08:33:15;10.48;;;3.83;;
21192;SDS011;10754;51.106;7.164;2022-12-24T08:35:46;15.27;;;4.63;;
21192;SDS011;10754;51.106;7.164;2022-12-24T08:38:12;12.00;;;4.03;;
21192;SDS011;10754;51.106;7.164;2022-12-24T08:40:38;13.23;;;3.45;;
21192;SDS011;10754;51.106;7.164;2022-12-24T08:43:04;14.07;;;3.33;;
21192;SDS011;10754;51.106;7.164;2022-12-24T08:45:29;12.18;;;3.33;;
21192;SDS011;10754;51.106;7.164;2022-12-24T08:47:54;12.83;;;3.67;;
21192;SDS011;10754;51.106;7.164;2022-12-24T08:50:22;12.73;;;3.85;;
21192;SDS011;10754;51.106;7.164;2022-12-24T08:52:48;12.67;;;3.60;;
21192;SDS011;10754;51.106;7.164;2022-12-24T08:55:13;10.80;;;3.95;;
21192;SDS011;10754;51.106;7.164;2022-12-24T08:57:39;11.82;;;3.50;;
21192;SDS011;10754;51.106;7.164;2022-12-24T09:00:04;11.73;;;4.63;;
21192;SDS011;10754;51.106;7.164;2022-12-24T09:02:31;18.13;;;5.05;;
21192;SDS011;10754;51.106;7.164;2022-12-24T09:04:57;11.43;;;3.75;;
21192;SDS011;10754;51.106;7.164;2022-12-24T09:07:22;12.38;;;4.22;;
21192;SDS011;10754;51.106;7.164;2022-12-24T09:09:48;11.77;;;4.05;;
21192;SDS011;10754;51.106;7.164;2022-12-24T09:12:13;13.93;;;3.83;;
21192;SDS011;10754;51.106;7.164;2022-12-24T09:14:39;15.02;;;3.80;;
21192;SDS011;10754;51.106;7.164;2022-12-24T09:17:04;13.65;;;5.18;;
21192;SDS011;10754;51.106;7.164;2022-12-24T09:19:30;15.73;;;4.53;;
21192;SDS011;10754;51.106;7.164;2022-12-24T09:21:55;11.10;;;3.67;;
21192;SDS011;10754;51.106;7.164;2022-12-24T09:24:21;12.48;;;3.50;;
21192;SDS011;10754;51.106;7.164;2022-12-24T09:26:46;16.33;;;4.27;;
21192;SDS011;10754;51.106;7.164;2022-12-24T09:29:13;13.50;;;4.77;;
21192;SDS011;10754;51.106;7.164;2022-12-24T09:31:39;9.67;;;3.33;;
21192;SDS011;10754;51.106;7.164;2022-12-24T09:34:05;13.53;;;4.23;;
21192;SDS011;10754;51.106;7.164;2022-12-24T09:36:31;14.10;;;4.28;;
21192;SDS011;10754;51.106;7.164;2022-12-24T09:38:58;11.77;;;4.33;;
21192;SDS011;10754;51.106;7.164;2022-12-24T09:46:59;11.63;;;3.50;;
21192;SDS011;10754;51.106;7.164;2022-12-24T09:49:38;12.73;;;4.63;;
21192;SDS011;10754;51.106;7.164;2022-12-24T09:52:09;8.80;;;3.30;;
21192;SDS011;10754;51.106;7.164;2022-12-24T09:54:39;15.60;;;3.83;;
21192;SDS011;10754;51.106;7.164;2022-12-24T09:57:12;11.75;;;3.45;;
21192;SDS011;10754;51.106;7.164;2022-12-24T09:59:47;14.32;;;3.75;;
21192;SDS011;10754;51.106;7.164;2022-12-24T10:02:14;10.77;;;3.33;;
21192;SDS011;10754;51.106;7.164;2022-12-24T10:04:42;16.83;;;4.80;;
21192;SDS011;10754;51.106;7.164;2022-12-24T10:10:05;12.32;;;3.58;;
21192;SDS011;10754;51.106;7.164;2022-12-24T10:13:03;13.17;;;3.57;;
21192;SDS011;10754;51.106;7.164;2022-12-24T10:21:36;13.30;;;4.33;;
21192;SDS011;10754;51.106;7.164;2022-12-24T10:27:13;12.27;;;4.27;;
21192;SDS011;10754;51.106;7.164;2022-12-24T10:29:41;9.88;;;3.40;;
21192;SDS011;10754;51.106;7.164;2022-12-24T10:32:26;13.27;;;4.30;;
21192;SDS011;10754;51.106;7.164;2022-12-24T10:37:30;10.85;;;3.75;;
21192;SDS011;10754;51.106;7.164;2022-12-24T10:39:55;15.33;;;4.37;;
21192;SDS011;10754;51.106;7.164;2022-12-24T10:42:24;12.43;;;4.35;;
21192;SDS011;10754;51.106;7.164;2022-12-24T10:45:01;16.30;;;4.93;;
21192;SDS011;10754;51.106;7.164;2022-12-24T10:47:31;15.15;;;5.00;;
21192;SDS011;10754;51.106;7.164;2022-12-24T10:50:03;15.27;;;4.25;;
21192;SDS011;10754;51.106;7.164;2022-12-24T10:52:34;11.52;;;4.35;;
21192;SDS011;10754;51.106;7.164;2022-12-24T10:57:41;11.33;;;3.93;;
21192;SDS011;10754;51.106;7.164;2022-12-24T11:00:22;14.57;;;4.60;;
21192;SDS011;10754;51.106;7.164;2022-12-24T11:02:48;11.57;;;4.53;;
21192;SDS011;10754;51.106;7.164;2022-12-24T11:05:30;12.32;;;4.45;;
21192;SDS011;10754;51.106;7.164;2022-12-24T11:08:01;17.38;;;4.60;;
21192;SDS011;10754;51.106;7.164;2022-12-24T11:10:39;15.10;;;4.07;;
21192;SDS011;10754;51.106;7.164;2022-12-24T11:13:25;13.38;;;3.67;;
21192;SDS011;10754;51.106;7.164;2022-12-24T11:18:49;10.48;;;3.30;;
21192;SDS011;10754;51.106;7.164;2022-12-24T11:21:26;14.63;;;4.25;;
21192;SDS011;10754;51.106;7.164;2022-12-24T11:23:58;14.43;;;5.10;;
21192;SDS011;10754;51.106;7.164;2022-12-24T11:26:29;12.20;;;4.57;;
21192;SDS011;10754;51.106;7.164;2022-12-24T11:29:02;14.17;;;4.37;;
21192;SDS011;10754;51.106;7.164;2022-12-24T11:31:30;11.83;;;3.97;;
21192;SDS011;10754;51.106;7.164;2022-12-24T11:33:57;13.10;;;4.67;;
21192;SDS011;10754;51.106;7.164;2022-12-24T11:36:23;12.15;;;4.00;;
21192;SDS011;10754;51.106;7.164;2022-12-24T11:38:52;14.57;;;4.03;;
21192;SDS011;10754;51.106;7.164;2022-12-24T11:41:19;16.90;;;3.97;;
21192;SDS011;10754;51.106;7.164;2022-12-24T11:43:46;13.27;;;3.87;;
21192;SDS011;10754;51.106;7.164;2022-12-24T11:48:41;14.25;;;3.88;;
21192;SDS011;10754;51.106;7.164;2022-12-24T11:51:09;14.63;;;3.90;;
21192;SDS011;10754;51.106;7.164;2022-12-24T11:53:52;14.10;;;4.17;;
21192;SDS011;10754;51.106;7.164;2022-12-24T11:56:31;12.27;;;4.43;;
21192;SDS011;10754;51.106;7.164;2022-12-24T11:59:07;14.68;;;3.70;;
21192;SDS011;10754;51.106;7.164;2022-12-24T12:01:44;14.85;;;4.45;;
21192;SDS011;10754;51.106;7.164;2022-12-24T12:04:20;14.88;;;4.90;;
21192;SDS011;10754;51.106;7.164;2022-12-24T12:06:59;13.05;;;3.20;;
21192;SDS011;10754;51.106;7.164;2022-12-24T12:09:31;11.27;;;3.95;;
21192;SDS011;10754;51.106;7.164;2022-12-24T12:12:01;14.52;;;4.13;;
21192;SDS011;10754;51.106;7.164;2022-12-24T12:14:35;12.88;;;3.58;;
21192;SDS011;10754;51.106;7.164;2022-12-24T12:17:34;15.32;;;3.90;;
21192;SDS011;10754;51.106;7.164;2022-12-24T12:20:12;12.60;;;3.30;;
21192;SDS011;10754;51.106;7.164;2022-12-24T12:22:55;14.48;;;3.47;;
21192;SDS011;10754;51.106;7.164;2022-12-24T12:25:42;12.77;;;4.25;;
21192;SDS011;10754;51.106;7.164;2022-12-24T12:28:22;12.85;;;3.92;;
21192;SDS011;10754;51.106;7.164;2022-12-24T12:31:06;12.75;;;3.80;;
21192;SDS011;10754;51.106;7.164;2022-12-24T12:33:39;11.63;;;4.18;;
21192;SDS011;10754;51.106;7.164;2022-12-24T12:36:12;15.25;;;4.32;;
21192;SDS011;10754;51.106;7.164;2022-12-24T12:38:42;13.70;;;4.53;;
21192;SDS011;10754;51.106;7.164;2022-12-24T12:44:09;12.18;;;3.35;;
21192;SDS011;10754;51.106;7.164;2022-12-24T12:47:16;10.23;;;3.78;;
21192;SDS011;10754;51.106;7.164;2022-12-24T12:53:33;11.32;;;3.72;;
21192;SDS011;10754;51.106;7.164;2022-12-24T12:56:00;11.73;;;3.70;;
21192;SDS011;10754;51.106;7.164;2022-12-24T12:58:42;16.35;;;4.57;;
21192;SDS011;10754;51.106;7.164;2022-12-24T13:01:12;13.40;;;3.40;;
21192;SDS011;10754;51.106;7.164;2022-12-24T13:03:49;13.25;;;3.88;;
21192;SDS011;10754;51.106;7.164;2022-12-24T13:06:26;15.95;;;3.70;;
21192;SDS011;10754;51.106;7.164;2022-12-24T13:15:21;14.43;;;3.75;;
21192;SDS011;10754;51.106;7.164;2022-12-24T13:20:35;14.73;;;3.70;;
21192;SDS011;10754;51.106;7.164;2022-12-24T13:23:11;10.93;;;3.28;;
21192;SDS011;10754;51.106;7.164;2022-12-24T13:25:43;8.23;;;3.47;;
21192;SDS011;10754;51.106;7.164;2022-12-24T13:30:52;10.57;;;3.45;;
21192;SDS011;10754;51.106;7.164;2022-12-24T13:36:15;14.98;;;3.38;;
21192;SDS011;10754;51.106;7.164;2022-12-24T13:38:43;9.18;;;3.40;;
21192;SDS011;10754;51.106;7.164;2022-12-24T13:49:27;13.52;;;3.90;;
21192;SDS011;10754;51.106;7.164;2022-12-24T13:54:36;16.08;;;3.55;;
21192;SDS011;10754;51.106;7.164;2022-12-24T13:57:22;12.65;;;3.15;;
21192;SDS011;10754;51.106;7.164;2022-12-24T13:59:59;12.32;;;3.80;;
21192;SDS011;10754;51.106;7.164;2022-12-24T14:02:31;9.95;;;3.10;;
21192;SDS011;10754;51.106;7.164;2022-12-24T14:05:01;11.77;;;3.40;;
21192;SDS011;10754;51.106;7.164;2022-12-24T14:07:32;12.07;;;3.40;;
21192;SDS011;10754;51.106;7.164;2022-12-24T14:09:58;14.82;;;4.45;;
21192;SDS011;10754;51.106;7.164;2022-12-24T14:12:32;10.38;;;3.80;;
21192;SDS011;10754;51.106;7.164;2022-12-24T14:18:25;10.57;;;3.63;;
21192;SDS011;10754;51.106;7.164;2022-12-24T14:20:52;11.27;;;3.28;;
21192;SDS011;10754;51.106;7.164;2022-12-24T14:23:31;12.40;;;3.28;;
21192;SDS011;10754;51.106;7.164;2022-12-24T14:26:11;9.68;;;2.50;;
21192;SDS011;10754;51.106;7.164;2022-12-24T14:29:24;13.35;;;4.13;;
21192;SDS011;10754;51.106;7.164;2022-12-24T14:31:36;9.25;;;3.22;;
21192;SDS011;10754;51.106;7.164;2022-12-24T14:34:06;12.75;;;3.70;;
21192;SDS011;10754;51.106;7.164;2022-12-24T14:36:36;15.73;;;4.07;;
21192;SDS011;10754;51.106;7.164;2022-12-24T14:39:04;10.85;;;3.42;;
21192;SDS011;10754;51.106;7.164;2022-12-24T14:47:41;11.68;;;3.35;;
21192;SDS011;10754;51.106;7.164;2022-12-24T14:56:44;10.45;;;3.25;;
21192;SDS011;10754;51.106;7.164;2022-12-24T14:59:13;7.75;;;3.75;;
21192;SDS011;10754;51.106;7.164;2022-12-24T15:01:40;8.57;;;3.17;;
21192;SDS011;10754;51.106;7.164;2022-12-24T15:06:35;8.82;;;3.08;;
21192;SDS011;10754;51.106;7.164;2022-12-24T15:09:26;12.55;;;3.95;;
21192;SDS011;10754;51.106;7.164;2022-12-24T15:11:55;10.15;;;2.95;;
21192;SDS011;10754;51.106;7.164;2022-12-24T15:14:25;9.45;;;2.90;;
21192;SDS011;10754;51.106;7.164;2022-12-24T15:16:54;8.65;;;3.05;;
21192;SDS011;10754;51.106;7.164;2022-12-24T15:19:38;6.97;;;2.60;;
21192;SDS011;10754;51.106;7.164;2022-12-24T15:22:14;9.95;;;3.25;;
21192;SDS011;10754;51.106;7.164;2022-12-24T15:24:52;7.20;;;2.80;;
21192;SDS011;10754;51.106;7.164;2022-12-24T15:27:19;8.55;;;4.05;;
21192;SDS011;10754;51.106;7.164;2022-12-24T15:29:50;7.80;;;3.33;;
21192;SDS011;10754;51.106;7.164;2022-12-24T15:32:18;8.05;;;3.40;;
21192;SDS011;10754;51.106;7.164;2022-12-24T15:34:49;9.93;;;3.83;;
21192;SDS011;10754;51.106;7.164;2022-12-24T15:39:43;10.23;;;3.92;;
21192;SDS011;10754;51.106;7.164;2022-12-24T15:42:17;10.85;;;4.20;;
21192;SDS011;10754;51.106;7.164;2022-12-24T15:47:15;10.60;;;4.22;;
21192;SDS011;10754;51.106;7.164;2022-12-24T15:49:46;9.38;;;3.75;;
21192;SDS011;10754;51.106;7.164;2022-12-24T15:52:14;10.00;;;4.20;;
21192;SDS011;10754;51.106;7.164;2022-12-24T15:54:43;9.55;;;3.88;;
21192;SDS011;10754;51.106;7.164;2022-12-24T15:57:11;8.43;;;3.60;;
21192;SDS011;10754;51.106;7.164;2022-12-24T15:59:39;8.55;;;3.58;;
21192;SDS011;10754;51.106;7.164;2022-12-24T16:02:17;11.63;;;4.18;;
21192;SDS011;10754;51.106;7.164;2022-12-24T16:05:16;11.77;;;3.47;;
21192;SDS011;10754;51.106;7.164;2022-12-24T16:10:40;12.10;;;4.47;;
21192;SDS011;10754;51.106;7.164;2022-12-24T16:13:11;12.60;;;4.45;;
21192;SDS011;10754;51.106;7.164;2022-12-24T16:15:42;12.10;;;4.43;;
21192;SDS011;10754;51.106;7.164;2022-12-24T16:18:17;8.25;;;3.67;;
21192;SDS011;10754;51.106;7.164;2022-12-24T16:20:48;10.68;;;4.25;;
21192;SDS011;10754;51.106;7.164;2022-12-24T16:23:16;9.07;;;4.07;;
21192;SDS011;10754;51.106;7.164;2022-12-24T16:25:43;11.90;;;4.13;;
21192;SDS011;10754;51.106;7.164;2022-12-24T16:28:12;14.53;;;5.27;;
21192;SDS011;10754;51.106;7.164;2022-12-24T16:30:38;11.53;;;4.47;;
21192;SDS011;10754;51.106;7.164;2022-12-24T16:33:04;9.63;;;3.85;;
21192;SDS011;10754;51.106;7.164;2022-12-24T16:35:30;8.82;;;3.38;;
21192;SDS011;10754;51.106;7.164;2022-12-24T16:38:02;9.35;;;3.83;;
21192;SDS011;10754;51.106;7.164;2022-12-24T16:40:28;9.53;;;3.57;;